Nearby Meteorological Terminal Aviation Routine Weather Reports (METAR)
KAVP - Avoca/Wilkes B., Pennsylvania, USA
Distance from station: NE 13mi, 20km
Updated: Wed, 23-Jan-2019 8:54pm EST
Light rain, Mist, Overcast
Light rain, Mist, Overcast
 Wind from SSW
Wind: SSW 9 mph , 15 km/h, Gust: 20 mph , 31 km/h
Temperature: 43°F , 6°C
Wind Chill: 38°F , 3°C
Dew Point: 37°F , 3°C
Humidity: 81%
Barometer: 29.88 inHg , 1011.9 hPa
Summary: Light rain, Mist
Clouds: Overcast
Visibility: 6 miles , 10 km
Cloud details: Overcast 2400 ft
2019/01/24 01:54 KAVP 240154Z 20008G17KT 6SM -RA BR OVC024 06/03 A2988 RMK AO2 SLP126 P0002 T00560033
KMPO - Mt. Pocono, Pennsylvania, USA
Distance from station: ESE 28mi, 45km
Updated: Wed, 23-Jan-2019 8:53pm EST
Overcast
Overcast
 Wind from S
Wind: S 10 mph , 17 km/h, Gust: 17 mph , 28 km/h
Temperature: 37°F , 3°C
Wind Chill: 30°F , -1°C
Dew Point: 36°F , 2°C
Humidity: 93%
Barometer: 29.90 inHg , 1012.5 hPa
Clouds: Overcast
Visibility: 10 miles , 16 km
Cloud details: Overcast 1900 ft
2019/01/24 01:53 KMPO 240153Z AUTO 18009G15KT 10SM OVC019 03/02 A2990 RMK AO2 SLP149 T00280022
 
KABE - Allentown, Pennsylvania, USA
Distance from station: SSE 46mi, 74km
Updated: Wed, 23-Jan-2019 8:51pm EST
Overcast
Overcast
 Wind from calm
Wind: Calm
Temperature: 39°F , 4°C
Dew Point: 30°F , -1°C
Humidity: 70%
Barometer: 29.95 inHg , 1014.2 hPa
Clouds: Overcast
Visibility: 10 miles , 16 km
Cloud details: Overcast 3800 ft
2019/01/24 01:51 KABE 240151Z 00000KT 10SM OVC038 04/M01 A2995 RMK AO2 SLP146 T00391011
KXLL - Allentown Queen, Pennsylvania, USA
Distance from station: SSE 50mi, 81km
Updated: Wed, 23-Jan-2019 8:55pm EST
Overcast
Overcast
 Wind from calm
Wind: Calm
Temperature: 39°F , 4°C
Dew Point: 32°F , 0°C
Humidity: 75%
Barometer: 29.96 inHg , 1014.6 hPa
Clouds: Overcast
Visibility: 10 miles , 16 km
Cloud details: Overcast 3500 ft
2019/01/24 01:55 KXLL 240155Z AUTO 00000KT 10SM OVC035 04/00 A2996 RMK AO2
 
KIPT - Williamsport, Pennsylvania, USA
Distance from station: W 52mi, 84km
Updated: Wed, 23-Jan-2019 8:54pm EST
Light rain, Mist, Overcast
Light rain, Mist, Overcast
 Wind from varies
Wind: varies 5 mph , 7 km/h
Temperature: 34°F , 1°C
Wind Chill: 29°F , -2°C
Dew Point: 32°F , 0°C
Humidity: 93%
Barometer: 29.87 inHg , 1011.5 hPa
Summary: Light rain, Mist
Clouds: Overcast
Visibility: 2 1/2 miles , 2 km
Cloud details: Few Clouds 700 ft
Overcast 1400 ft
2019/01/24 01:54 KIPT 240154Z VRB04KT 2 1/2SM -RA BR FEW007 OVC014 01/00 A2987 RMK AO2 SLP119 P0006 T00110000
KSEG - Selinsgrove, Pennsylvania, USA
Distance from station: WSW 57mi, 92km
Updated: Wed, 23-Jan-2019 9:02pm EST
Mist, Overcast
Mist, Overcast
 Wind from calm
Wind: Calm
Temperature: 36°F , 2°C
Dew Point: 34°F , 1°C
Humidity: 93%
Barometer: 29.88 inHg , 1011.9 hPa
Summary: Mist
Clouds: Overcast
Visibility: 3 miles , 5 km
Cloud details: Overcast 2200 ft
2019/01/24 02:02 KSEG 240202Z AUTO 00000KT 3SM BR OVC022 02/01 A2988 RMK AO2 UPE0158 P0000 T00170011
 
KRDG - Reading, Pennsylvania, USA
Distance from station: S 59mi, 95km
Updated: Wed, 23-Jan-2019 8:54pm EST
Overcast
Overcast
 Wind from calm
Wind: Calm
Temperature: 45°F , 7°C
Dew Point: 39°F , 4°C
Humidity: 81%
Barometer: 29.94 inHg , 1013.9 hPa
Clouds: Overcast
Visibility: 10 miles , 16 km
Cloud details: Overcast 3600 ft
2019/01/24 01:54 KRDG 240154Z 00000KT 10SM OVC036 07/04 A2994 RMK AO2 RAB30E44 SLP145 P0000 T00720039
KUKT - Quakertown Arp, Pennsylvania, USA
Distance from station: SSE 61mi, 98km
Updated: Wed, 23-Jan-2019 9:00pm EST
Mostly cloudy
Mostly cloudy
 Wind from calm
Wind: Calm
Temperature: 45°F , 7°C
Dew Point: 37°F , 3°C
Humidity: 76%
Barometer: 29.96 inHg , 1014.6 hPa
Clouds: Mostly cloudy
Visibility: 10 miles , 16 km
Cloud details: Mostly cloudy 3300 ft
2019/01/24 02:00 KUKT 240200Z AUTO 00000KT 10SM BKN033 07/03 A2996 RMK A01
 
K12N - Andover, New Jersey, USA
Distance from station: ESE 63mi, 101km
Updated: Wed, 23-Jan-2019 8:54pm EST

 Wind from calm
Wind: Calm
Temperature: 34°F , 1°C
Dew Point: 32°F , 0°C
Humidity: 93%
Barometer: 29.96 inHg , 1014.6 hPa
2019/01/24 01:54 K12N 240154Z AUTO 00000KT 01/00 A2996 RMK AO1 SLP156 T00110000
KMUI - Muir Aaf/Indiant, Pennsylvania, USA
Distance from station: SSW 65mi, 105km
Updated: Wed, 23-Jan-2019 8:56pm EST
Light rain, Overcast
Light rain, Overcast
 Wind from N
Wind: N 3 mph , 6 km/h
Temperature: 37°F , 3°C
Dew Point: 34°F , 1°C
Humidity: 87%
Barometer: 29.93 inHg , 1013.5 hPa
Summary: Light rain
Clouds: Overcast
Visibility: 10 miles , 16 km
Cloud details: Few Clouds 500 ft
Overcast 2800 ft
2019/01/24 01:56 KMUI 240156Z 01003KT 10SM -RA FEW005 OVC028 03/01 A2993 RMK AO2A RAB15 SLP143 P0001 T00250009 $
 
KFWN - Sussex, New Jersey, USA
Distance from station: E 66mi, 107km
Updated: Wed, 23-Jan-2019 8:53pm EST
Overcast
Overcast
 Wind from calm
Wind: Calm
Temperature: 36°F , 2°C
Dew Point: 30°F , -1°C
Humidity: 81%
Barometer: 29.95 inHg , 1014.2 hPa
Clouds: Overcast
Visibility: 10 miles , 16 km
Cloud details: Overcast 4200 ft
2019/01/24 01:53 KFWN 240153Z AUTO 00000KT 10SM OVC042 02/M01 A2995 RMK AO2 SLP145 T00171011
KMSV - Monticello, New York, USA
Distance from station: ENE 67mi, 108km
Updated: Wed, 23-Jan-2019 8:56pm EST
Overcast
Overcast
 Wind from NNE
Wind: NNE 3 mph , 6 km/h
Temperature: 32°F , 0°C
Dew Point: 30°F , -1°C
Humidity: 93%
Barometer: 29.93 inHg , 1013.5 hPa
Clouds: Overcast
Visibility: 10 miles , 16 km
Cloud details: Overcast 2000 ft
2019/01/24 01:56 KMSV 240156Z AUTO 03003KT 10SM UP OVC020 00/M01 A2993 RMK AO2 UPE06B24 SLP154 P0000 T00001006 FZRANO
 
KBGM - Binghamton, New York, USA
Distance from station: N 69mi, 111km
Updated: Wed, 23-Jan-2019 8:53pm EST
Light rain, Mist, Overcast
Light rain, Mist, Overcast
 Wind from S
Wind: S 12 mph , 19 km/h, Gust: 22 mph , 35 km/h
Temperature: 37°F , 3°C
Wind Chill: 29°F , -2°C
Dew Point: 37°F , 3°C
Humidity: 100%
Barometer: 29.80 inHg , 1009.1 hPa
Summary: Light rain, Mist
Clouds: Overcast
Visibility: 4 miles , 6 km
Cloud details: Overcast 500 ft
2019/01/24 01:53 KBGM 240153Z 19010G19KT 4SM -RA BR OVC005 03/03 A2980 RMK AO2 SNB0054E20 CIG 004V009 SLP107 P0004 T00330028
KPTW - Pottstown, Pennsylvania, USA
Distance from station: SSE 71mi, 114km
Updated: Wed, 23-Jan-2019 8:54pm EST
Overcast
Overcast
 Wind from calm
Wind: Calm
Temperature: 43°F , 6°C
Dew Point: 36°F , 2°C
Humidity: 76%
Barometer: 29.97 inHg , 1014.9 hPa
Clouds: Overcast
Visibility: 10 miles , 16 km
Cloud details: Mostly cloudy 3600 ft
Overcast 5000 ft
2019/01/24 01:54 KPTW 240154Z AUTO 00000KT 10SM BKN036 OVC050 06/02 A2997 RMK AO2 SLP149 T00560017 TSNO
 
KDYL - Doylestown, Pennsylvania, USA
Distance from station: SE 74mi, 119km
Updated: Wed, 23-Jan-2019 8:54pm EST
Overcast
Overcast
 Wind from SSE
Wind: SSE 7 mph , 11 km/h
Temperature: 45°F , 7°C
Wind Chill: 41°F , 5°C
Dew Point: 36°F , 2°C
Humidity: 71%
Barometer: 29.96 inHg , 1014.6 hPa
Clouds: Overcast
Visibility: 10 miles , 16 km
Cloud details: Few Clouds 3800 ft
Overcast 5000 ft
2019/01/24 01:54 KDYL 240154Z AUTO 15006KT 10SM FEW038 OVC050 07/02 A2996 RMK AO2 SLP151 T00670022
KSMQ - Somerville, New Jersey, USA
Distance from station: ESE 77mi, 124km
Updated: Wed, 23-Jan-2019 8:53pm EST
Overcast
Overcast
 Wind from NW
Wind: NW 5 mph , 7 km/h
Temperature: 36°F , 2°C
Wind Chill: 32°F , 0°C
Dew Point: 28°F , -2°C
Humidity: 75%
Barometer: 29.97 inHg , 1014.9 hPa
Clouds: Overcast
Visibility: 10 miles , 16 km
Cloud details: Mostly cloudy 4300 ft
Overcast 5500 ft
2019/01/24 01:53 KSMQ 240153Z AUTO 31004KT 10SM BKN043 OVC055 02/M02 A2997 RMK AO2 SLP150 T00221022
 
KLNS - Lancaster, Pennsylvania, USA
Distance from station: SSW 79mi, 127km
Updated: Wed, 23-Jan-2019 8:53pm EST
Overcast
Overcast
 Wind from E
Wind: E 3 mph , 6 km/h
Temperature: 43°F , 6°C
Dew Point: 36°F , 2°C
Humidity: 76%
Barometer: 29.93 inHg , 1013.5 hPa
Clouds: Overcast
Visibility: 10 miles , 16 km
Cloud details: Overcast 3700 ft
2019/01/24 01:53 KLNS 240153Z 09003KT 10SM OVC037 06/02 A2993 RMK AO2 SLP139 T00610022
KELM - Elmira, New York, USA
Distance from station: NW 82mi, 132km
Updated: Wed, 23-Jan-2019 8:53pm EST
Light rain, Overcast
Light rain, Overcast
 Wind from WNW
Wind: WNW 6 mph , 9 km/h
Temperature: 43°F , 6°C
Wind Chill: 39°F , 4°C
Dew Point: 36°F , 2°C
Humidity: 76%
Barometer: 29.77 inHg , 1008.1 hPa
Summary: Light rain
Clouds: Overcast
Visibility: 9 miles , 14 km
Cloud details: Overcast 1700 ft
2019/01/24 01:53 KELM 240153Z 29005KT 9SM -RA OVC017 06/02 A2977 RMK AO2 RAE23B42 SLP090 P0001 T00610022
 
KLOM - Philly Wings F, Pennsylvania, USA
Distance from station: SSE 82mi, 132km
Updated: Wed, 23-Jan-2019 8:55pm EST
Partly cloudy
Partly cloudy
 Wind from calm
Wind: Calm
Temperature: 43°F , 6°C
Dew Point: 37°F , 3°C
Humidity: 81%
Barometer: 29.98 inHg , 1015.2 hPa
Clouds: Partly cloudy
Visibility: 10 miles , 16 km
Cloud details: Partly cloudy 6000 ft
2019/01/24 01:55 KLOM 240155Z AUTO 00000KT 10SM SCT060 06/03 A2998 RMK AO1
KMMU - Morristown Muni, New Jersey, USA
Distance from station: ESE 83mi, 134km
Updated: Wed, 23-Jan-2019 8:45pm EST
Overcast
Overcast
 Wind from calm
Wind: Calm
Temperature: 36°F , 2°C
Dew Point: 28°F , -2°C
Humidity: 75%
Barometer: 29.99 inHg , 1015.6 hPa
Clouds: Overcast
Visibility: 10 miles , 16 km
Cloud details: Overcast 5000 ft
2019/01/24 01:45 KMMU 240145Z 00000KT 10SM OVC050 02/M02 A2999

Metar display script from Saratoga-Weather.org


Cairn Terrier Rescue
teddybearweather.com 2009-2018